Glade Valley, NC (28627)

7:55 PM EDT on March 28, 2017 (GMT -0400)
Glade Valley View | | Change Station

Elev 2936 ft 36.50 °N, 81.05 °W | Updated 28 seconds ago

Mostly Cloudy
Mostly Cloudy
56.7 °F
Feels Like 56.7 °F
N
5.6
Wind Variable Wind from North
Gusts 7.4 mph

Today
High -- | Low -- °F
--% Chance of Precip.
Yesterday
High -- | Low -- °F
Precip. -- in
Pressure 30.02 in
Visibility 10.0 miles
Clouds Mostly Cloudy 7000 ft
Dew Point 48 °F
Humidity 72%
Rainfall 0.27 in
Snow Depth Not available.
7:15 AM 7:43 PM
New Moon, 1% visible
METAR KUKF 282340Z AUTO 34005KT 10SM BKN070 18/10 A3002 RMK AO2
Pressure 30.02 in
Visibility 10.0 miles
Clouds Mostly Cloudy 7000 ft
Dew Point 48 °F
Humidity 72%
Rainfall 0.27 in
Snow Depth Not available.
7:15 AM 7:43 PM
New Moon, 1% visible
METAR KUKF 282340Z AUTO 34005KT 10SM BKN070 18/10 A3002 RMK AO2

Get Severe Weather Alerts

Thanks for signing up!

Be on the lookout for a verification email in your inbox.

You'll start receiving the daily forecast at 8 AM.

×

10-Day Weather Forecast

Almanac

Astronomy

Mar. 28, 2017 Rise Set
Actual Time
Civil Twilight
Nautical Twilight
Astronomical Twilight
Moon
Length of Visible Light
Length of Day
Tomorrow will be .
, % of the Moon is Illuminated

Today's Extremes

State Highs State Lows

Community

WunderPhotos

Upload Photos

1,962,540 photos uploaded!

WunderBlog® & News

Nearby

Air Quality

  Air Quality AQ Index Pollutant
Not available.

Snow Depth

Station Depth Elevation

Earthquake Activity

City Distance Mag. Time & Date
Minimum magnitude displayed is 2.5.

Earthquake Activity

City Distance Mag. Time & Date
Minimum magnitude displayed is 2.5.

Coastal Water Temperatures

Place Temperature

Stations

Nearby Weather Stations

Station Location Temp. Windchill Dew Point Humidity Wind Precip. Elev Updated Type
                   

Watches & Warnings

There are currently no watches in effect.